SEA weather

Seattle Tacoma International Airport
Seattle, Washington, United States

Public forecast

Using degrees Fahrenheit for public forecast. Weather courtesy of forecast.io.

Current aviation weather report (METAR) for Seattle Tacoma International Airport

Retrieved 2020/01/19 08:53 UTC (45 minutes ago):

KSEA 190853Z 12004KT 10SM SCT042 OVC050 08/02 A3027 RMK AO2 SLP256 T00780017 58001

Aviation forecast (TAF) for Seattle Tacoma International Airport

Retrieved 2020/01/19 06:22 UTC (3 hours ago):

TAF KSEA 190520Z 1906/2012 13007KT P6SM SCT040 BKN060 BKN120 TEMPO 1910/1914 BKN025 OVC050 FM191700 12006KT P6SM -RA OVC035 FM200000 07006KT P6SM SCT050 BKN150